Time;durP1;ratioP1;P1;durP2;ratioP2;P2;SDS_P1;SDS_P2;PMS_P1;PMS_P2;Temp;Humidity;BMP_temperature;BMP_pressure;BME280_temperature;BME280_humidity;BME280_pressure;Samples;Min_cycle;Max_cycle;Signal;HPM_P1;HPM_P2
2023/08/19 00:01:36;;;;;;;1.50;1.40;;;;;;;;;;6285029;28;20294;-71
2023/08/19 00:04:40;;;;;;;1.50;1.50;;;;;;;;;;6285003;28;20584;-72
2023/08/19 00:07:44;;;;;;;1.60;1.60;;;;;;;;;;6284477;28;20382;-72
2023/08/19 00:10:47;;;;;;;1.48;1.48;;;;;;;;;;6284841;28;20287;-72
2023/08/19 00:13:53;;;;;;;1.42;1.42;;;;;;;;;;6284696;28;20291;-72
2023/08/19 00:16:57;;;;;;;3.58;1.30;;;;;;;;;;6283598;28;20303;-72
2023/08/19 00:20:02;;;;;;;4.43;1.63;;;;;;;;;;6283153;28;20331;-72
2023/08/19 00:23:05;;;;;;;1.70;1.52;;;;;;;;;;6283209;28;20302;-72
2023/08/19 00:26:11;;;;;;;2.05;1.50;;;;;;;;;;6283394;28;20449;-72
2023/08/19 00:29:16;;;;;;;1.50;1.40;;;;;;;;;;6283993;28;20579;-72
2023/08/19 00:32:20;;;;;;;2.05;1.77;;;;;;;;;;6283821;28;20477;-72
2023/08/19 00:35:24;;;;;;;1.60;1.50;;;;;;;;;;6282454;28;20314;-71
2023/08/19 00:38:28;;;;;;;2.40;1.73;;;;;;;;;;6283936;28;20294;-72
2023/08/19 00:41:33;;;;;;;2.72;1.52;;;;;;;;;;6284713;28;20298;-72
2023/08/19 00:44:38;;;;;;;1.70;1.60;;;;;;;;;;6316137;28;20376;-71
2023/08/19 00:47:42;;;;;;;1.52;1.52;;;;;;;;;;6284411;28;20287;-71
2023/08/19 00:50:46;;;;;;;1.50;1.50;;;;;;;;;;6285082;28;20294;-71
2023/08/19 00:53:51;;;;;;;1.27;1.27;;;;;;;;;;6287762;28;20473;-71
2023/08/19 00:56:55;;;;;;;1.90;1.33;;;;;;;;;;6289284;28;20290;-71
2023/08/19 01:00:01;;;;;;;2.58;1.55;;;;;;;;;;6288741;28;20294;-71
2023/08/19 01:03:06;;;;;;;1.48;1.48;;;;;;;;;;6291957;22;20306;-73
2023/08/19 01:06:19;;;;;;;1.67;1.58;;;;;;;;;;6254656;28;20288;-72
2023/08/19 01:09:31;;;;;;;1.50;1.50;;;;;;;;;;6253839;28;20308;-71
2023/08/19 01:12:41;;;;;;;1.52;1.50;;;;;;;;;;6239395;28;20292;-71
2023/08/19 01:15:51;;;;;;;1.60;1.60;;;;;;;;;;6238901;28;20300;-72
2023/08/19 01:18:55;;;;;;;1.38;1.27;;;;;;;;;;6237724;28;20304;-72
2023/08/19 01:22:03;;;;;;;1.17;1.17;;;;;;;;;;6239301;28;20296;-74
2023/08/19 01:25:10;;;;;;;1.73;1.63;;;;;;;;;;6253995;28;20565;-72
2023/08/19 01:28:14;;;;;;;1.73;1.52;;;;;;;;;;6254051;28;20328;-72
2023/08/19 01:31:18;;;;;;;1.48;1.38;;;;;;;;;;6253659;28;20300;-72
2023/08/19 01:34:24;;;;;;;1.48;1.48;;;;;;;;;;6238677;28;20288;-72
2023/08/19 01:37:31;;;;;;;1.50;1.50;;;;;;;;;;6254692;28;20313;-71
2023/08/19 01:40:38;;;;;;;3.10;1.65;;;;;;;;;;6253827;28;20297;-71
2023/08/19 01:43:42;;;;;;;1.60;1.50;;;;;;;;;;6237983;28;20291;-71
2023/08/19 01:46:46;;;;;;;1.98;1.73;;;;;;;;;;6253891;28;20501;-71
2023/08/19 01:49:50;;;;;;;1.40;1.40;;;;;;;;;;6253550;28;20300;-71
2023/08/19 01:52:54;;;;;;;1.60;1.60;;;;;;;;;;6237927;28;20292;-71
2023/08/19 01:55:59;;;;;;;1.50;1.50;;;;;;;;;;6237586;28;20284;-71
2023/08/19 01:59:04;;;;;;;1.67;1.58;;;;;;;;;;6252841;28;20336;-71
2023/08/19 02:02:08;;;;;;;1.70;1.60;;;;;;;;;;6253214;28;20541;-71
2023/08/19 02:05:14;;;;;;;2.25;1.73;;;;;;;;;;6252838;28;20311;-72
2023/08/19 02:08:18;;;;;;;1.77;1.67;;;;;;;;;;6252787;28;20292;-71
2023/08/19 02:11:23;;;;;;;1.73;1.63;;;;;;;;;;6253409;28;20296;-71
2023/08/19 02:14:28;;;;;;;1.48;1.48;;;;;;;;;;6252855;28;20402;-71
2023/08/19 02:17:32;;;;;;;1.65;1.55;;;;;;;;;;6253672;28;20288;-71
2023/08/19 02:20:36;;;;;;;1.98;1.70;;;;;;;;;;6237592;28;20320;-71
2023/08/19 02:23:40;;;;;;;1.60;1.60;;;;;;;;;;6237466;28;20288;-71
2023/08/19 02:26:45;;;;;;;1.80;1.80;;;;;;;;;;6237868;28;20288;-73
2023/08/19 02:29:49;;;;;;;1.60;1.50;;;;;;;;;;6252716;28;20309;-71
2023/08/19 02:32:53;;;;;;;1.67;1.60;;;;;;;;;;6252421;28;20303;-71
2023/08/19 02:35:57;;;;;;;2.03;1.80;;;;;;;;;;6253061;28;20476;-72
2023/08/19 02:39:01;;;;;;;1.40;1.40;;;;;;;;;;6235711;28;20328;-72
2023/08/19 02:42:07;;;;;;;2.17;2.10;;;;;;;;;;6236200;28;20300;-72
2023/08/19 02:45:11;;;;;;;1.75;1.70;;;;;;;;;;6252066;28;20292;-71
2023/08/19 02:48:15;;;;;;;1.90;1.85;;;;;;;;;;6235812;28;20356;-71
2023/08/19 02:51:19;;;;;;;1.70;1.70;;;;;;;;;;6252387;28;20300;-71
2023/08/19 02:54:23;;;;;;;4.05;1.77;;;;;;;;;;6236623;28;20296;-71
2023/08/19 02:57:28;;;;;;;1.80;1.70;;;;;;;;;;6252499;28;20299;-71
2023/08/19 03:00:35;;;;;;;2.15;2.05;;;;;;;;;;6252196;28;20300;-71
2023/08/19 03:03:39;;;;;;;2.20;2.10;;;;;;;;;;6235488;28;20320;-72
2023/08/19 03:06:43;;;;;;;1.80;1.80;;;;;;;;;;6238299;28;20292;-72
2023/08/19 03:09:47;;;;;;;1.60;1.60;;;;;;;;;;6252628;28;20500;-71
2023/08/19 03:12:54;;;;;;;1.90;1.90;;;;;;;;;;6251623;28;20297;-71
2023/08/19 03:15:59;;;;;;;2.03;1.80;;;;;;;;;;6251549;28;20296;-72
2023/08/19 03:19:03;;;;;;;2.67;1.67;;;;;;;;;;6236309;28;20308;-71
2023/08/19 03:22:07;;;;;;;2.13;1.90;;;;;;;;;;6252277;28;20301;-71
2023/08/19 03:25:12;;;;;;;3.55;1.83;;;;;;;;;;6235774;28;20296;-71
2023/08/19 03:28:17;;;;;;;3.42;2.00;;;;;;;;;;6251936;28;20300;-71
2023/08/19 03:31:20;;;;;;;1.75;1.75;;;;;;;;;;6237121;28;20301;-71
2023/08/19 03:34:25;;;;;;;4.15;1.95;;;;;;;;;;6251311;28;20292;-71
2023/08/19 03:37:30;;;;;;;1.95;1.95;;;;;;;;;;6251178;28;20585;-71
2023/08/19 03:40:34;;;;;;;1.90;1.90;;;;;;;;;;6251060;28;20299;-71
2023/08/19 03:43:39;;;;;;;3.65;2.20;;;;;;;;;;6235685;28;20288;-71
2023/08/19 03:46:43;;;;;;;1.90;1.90;;;;;;;;;;6251474;28;20311;-73
2023/08/19 03:49:46;;;;;;;1.90;1.90;;;;;;;;;;6235513;28;20287;-71
2023/08/19 03:52:50;;;;;;;2.20;2.00;;;;;;;;;;6251278;28;20300;-71
2023/08/19 03:55:54;;;;;;;2.13;2.00;;;;;;;;;;6235359;28;20291;-71
2023/08/19 03:59:00;;;;;;;2.38;2.28;;;;;;;;;;6234381;28;20293;-72
2023/08/19 04:02:03;;;;;;;2.10;2.10;;;;;;;;;;6251190;28;20284;-72
2023/08/19 04:05:09;;;;;;;3.58;2.38;;;;;;;;;;6234872;28;20304;-71
2023/08/19 04:08:13;;;;;;;2.30;2.20;;;;;;;;;;6235764;28;20237;-73
2023/08/19 04:11:17;;;;;;;1.90;1.90;;;;;;;;;;6234916;28;20449;-72
2023/08/19 04:14:22;;;;;;;2.10;2.00;;;;;;;;;;6250633;28;20376;-71
2023/08/19 04:17:27;;;;;;;2.35;2.25;;;;;;;;;;6235262;28;20288;-71
2023/08/19 04:20:31;;;;;;;2.10;2.00;;;;;;;;;;6235146;28;20308;-71
2023/08/19 04:23:35;;;;;;;2.17;2.08;;;;;;;;;;6249829;28;20296;-72
2023/08/19 04:26:39;;;;;;;2.40;2.30;;;;;;;;;;6235208;28;20280;-72
2023/08/19 04:29:45;;;;;;;2.15;2.15;;;;;;;;;;6250545;28;20553;-71
2023/08/19 04:32:51;;;;;;;2.40;2.28;;;;;;;;;;6250973;28;20292;-71
2023/08/19 04:35:54;;;;;;;2.25;2.17;;;;;;;;;;6250422;28;20295;-71
2023/08/19 04:38:59;;;;;;;2.25;2.15;;;;;;;;;;6250098;28;20292;-71
2023/08/19 04:42:03;;;;;;;2.22;2.00;;;;;;;;;;6233981;28;20280;-71
2023/08/19 04:45:10;;;;;;;1.98;1.98;;;;;;;;;;6233495;28;20296;-72
2023/08/19 04:48:19;;;;;;;1.75;1.75;;;;;;;;;;6250433;28;20295;-71
2023/08/19 04:51:23;;;;;;;2.90;2.17;;;;;;;;;;6233123;28;20299;-71
2023/08/19 04:54:27;;;;;;;2.13;2.10;;;;;;;;;;6250524;28;20377;-72
2023/08/19 04:57:31;;;;;;;2.00;1.90;;;;;;;;;;6250783;28;20479;-72
2023/08/19 05:00:37;;;;;;;2.08;1.98;;;;;;;;;;6250140;28;20545;-71
2023/08/19 05:03:41;;;;;;;1.90;1.90;;;;;;;;;;6249244;28;20305;-71
2023/08/19 05:06:45;;;;;;;1.98;1.98;;;;;;;;;;6250699;28;20296;-73
2023/08/19 05:09:49;;;;;;;2.10;2.00;;;;;;;;;;6250778;28;20392;-72
2023/08/19 05:12:53;;;;;;;2.65;2.55;;;;;;;;;;6235293;28;20300;-72
2023/08/19 05:15:59;;;;;;;2.22;2.10;;;;;;;;;;6234438;28;20296;-72
2023/08/19 05:19:06;;;;;;;2.13;2.13;;;;;;;;;;6235186;28;20300;-72
2023/08/19 05:22:10;;;;;;;2.10;2.10;;;;;;;;;;6250924;28;20504;-72
2023/08/19 05:25:14;;;;;;;6.97;2.10;;;;;;;;;;6249791;28;20304;-72
2023/08/19 05:28:18;;;;;;;4.72;2.17;;;;;;;;;;6234844;28;20296;-72
2023/08/19 05:31:23;;;;;;;2.28;2.28;;;;;;;;;;6234430;28;20297;-72
2023/08/19 05:34:27;;;;;;;3.38;2.47;;;;;;;;;;6234611;28;20308;-71
2023/08/19 05:37:31;;;;;;;1.98;1.98;;;;;;;;;;6237324;28;20307;-71
2023/08/19 05:40:35;;;;;;;2.10;2.10;;;;;;;;;;6238655;28;20296;-71
2023/08/19 05:43:39;;;;;;;1.70;1.70;;;;;;;;;;6238698;28;20471;-71
2023/08/19 05:46:44;;;;;;;2.60;2.50;;;;;;;;;;6239136;28;20293;-71
2023/08/19 05:49:48;;;;;;;1.95;1.80;;;;;;;;;;6238332;28;20317;-72
2023/08/19 05:52:52;;;;;;;2.00;2.00;;;;;;;;;;6238790;28;20296;-71
2023/08/19 05:55:55;;;;;;;2.00;2.00;;;;;;;;;;6237819;28;20295;-71
2023/08/19 05:58:59;;;;;;;2.00;1.92;;;;;;;;;;6237544;28;20456;-72
2023/08/19 06:02:04;;;;;;;2.08;2.08;;;;;;;;;;6238497;28;20249;-71
2023/08/19 06:05:09;;;;;;;2.03;2.03;;;;;;;;;;6237801;28;20292;-71
2023/08/19 06:08:13;;;;;;;3.03;2.10;;;;;;;;;;6238478;28;20245;-72
2023/08/19 06:11:17;;;;;;;1.88;1.77;;;;;;;;;;6237876;28;20293;-72
2023/08/19 06:14:21;;;;;;;2.20;2.10;;;;;;;;;;6237647;28;20288;-71
2023/08/19 06:17:26;;;;;;;1.85;1.85;;;;;;;;;;6238198;28;20292;-72
2023/08/19 06:20:30;;;;;;;1.90;1.90;;;;;;;;;;6237720;28;20557;-72
2023/08/19 06:23:33;;;;;;;1.95;1.90;;;;;;;;;;6237077;28;20284;-72
2023/08/19 06:26:37;;;;;;;2.20;2.20;;;;;;;;;;6237685;28;20300;-72
2023/08/19 06:29:41;;;;;;;2.28;2.28;;;;;;;;;;6237387;28;20346;-71
2023/08/19 06:32:47;;;;;;;2.00;2.00;;;;;;;;;;6237217;28;20295;-72
2023/08/19 06:35:51;;;;;;;2.38;2.22;;;;;;;;;;6237117;28;20276;-71
2023/08/19 06:39:03;;;;;;;1.92;1.92;;;;;;;;;;6237383;28;20284;-71
2023/08/19 06:42:08;;;;;;;1.80;1.80;;;;;;;;;;6237593;28;20296;-72
2023/08/19 06:45:12;;;;;;;2.10;2.10;;;;;;;;;;6237137;28;20288;-72
2023/08/19 06:48:18;;;;;;;2.15;2.03;;;;;;;;;;6236272;28;20296;-71
2023/08/19 06:51:24;;;;;;;2.20;2.00;;;;;;;;;;6236709;28;20300;-72
2023/08/19 06:54:28;;;;;;;2.28;2.10;;;;;;;;;;6236648;28;20296;-72
2023/08/19 06:57:38;;;;;;;2.47;2.28;;;;;;;;;;6237773;28;20316;-71
2023/08/19 07:00:43;;;;;;;2.33;2.30;;;;;;;;;;6239561;28;20296;-71
2023/08/19 07:03:50;;;;;;;2.05;2.05;;;;;;;;;;6239459;28;20312;-71
2023/08/19 07:06:59;;;;;;;2.60;2.50;;;;;;;;;;6239188;28;20293;-72
2023/08/19 07:10:05;;;;;;;3.22;3.15;;;;;;;;;;6236682;28;20301;-71
2023/08/19 07:13:09;;;;;;;3.17;3.10;;;;;;;;;;6236287;28;20311;-71
2023/08/19 07:16:14;;;;;;;3.42;3.10;;;;;;;;;;6236470;28;20549;-72
2023/08/19 07:19:23;;;;;;;3.40;3.30;;;;;;;;;;6236448;28;20296;-73
2023/08/19 07:22:28;;;;;;;3.72;3.53;;;;;;;;;;6236597;28;20540;-72
2023/08/19 07:25:32;;;;;;;3.95;3.80;;;;;;;;;;6236049;28;20293;-72
2023/08/19 07:28:36;;;;;;;3.97;3.72;;;;;;;;;;6235741;28;20364;-72
2023/08/19 07:31:40;;;;;;;4.28;4.18;;;;;;;;;;6236094;28;20325;-72
2023/08/19 07:34:45;;;;;;;4.00;3.80;;;;;;;;;;6235533;28;20303;-71
2023/08/19 07:37:49;;;;;;;4.60;4.30;;;;;;;;;;6236198;28;20292;-71
2023/08/19 07:40:53;;;;;;;4.53;4.43;;;;;;;;;;6235708;28;20592;-69
2023/08/19 07:43:57;;;;;;;4.82;4.43;;;;;;;;;;6235786;28;20300;-70
2023/08/19 07:47:00;;;;;;;4.38;4.18;;;;;;;;;;6235403;28;20277;-72
2023/08/19 07:50:07;;;;;;;4.55;4.10;;;;;;;;;;6235322;28;20300;-70
2023/08/19 07:53:12;;;;;;;3.65;3.55;;;;;;;;;;6235783;28;20265;-73
2023/08/19 07:56:17;;;;;;;5.53;3.97;;;;;;;;;;6235167;28;20296;-70
2023/08/19 07:59:23;;;;;;;4.50;4.30;;;;;;;;;;6234768;28;20288;-70
2023/08/19 08:02:26;;;;;;;4.50;4.40;;;;;;;;;;6235519;28;20371;-69
2023/08/19 08:05:32;;;;;;;4.55;4.15;;;;;;;;;;6234318;28;20300;-71
2023/08/19 08:08:36;;;;;;;4.35;4.00;;;;;;;;;;6234852;28;20292;-70
2023/08/19 08:11:40;;;;;;;4.57;4.35;;;;;;;;;;6234897;28;20435;-70
2023/08/19 08:14:44;;;;;;;4.80;4.50;;;;;;;;;;6234476;28;20328;-71
2023/08/19 08:17:48;;;;;;;4.32;4.13;;;;;;;;;;6235129;28;20468;-69
2023/08/19 08:20:53;;;;;;;4.07;3.97;;;;;;;;;;6234609;28;20584;-70
2023/08/19 08:23:57;;;;;;;4.22;4.03;;;;;;;;;;6234871;28;20292;-70
2023/08/19 08:27:01;;;;;;;4.60;4.03;;;;;;;;;;6235111;28;20284;-72
2023/08/19 08:30:06;;;;;;;4.28;3.97;;;;;;;;;;6234708;28;20300;-70
2023/08/19 08:33:10;;;;;;;4.30;4.05;;;;;;;;;;6235023;28;20315;-71
2023/08/19 08:36:15;;;;;;;4.68;4.38;;;;;;;;;;6234489;28;20288;-71
2023/08/19 08:39:19;;;;;;;4.72;4.18;;;;;;;;;;6234279;28;20291;-71
2023/08/19 08:42:24;;;;;;;3.90;3.70;;;;;;;;;;6234858;28;20292;-73
2023/08/19 08:45:31;;;;;;;4.10;4.00;;;;;;;;;;6249648;28;20312;-72
2023/08/19 08:48:35;;;;;;;4.38;4.25;;;;;;;;;;6234439;28;20379;-71
2023/08/19 08:51:40;;;;;;;4.47;4.13;;;;;;;;;;6234668;28;20287;-70
2023/08/19 08:54:44;;;;;;;4.22;4.03;;;;;;;;;;6234019;28;20308;-71
2023/08/19 08:57:48;;;;;;;4.07;3.70;;;;;;;;;;6234453;28;20305;-71
2023/08/19 09:00:53;;;;;;;4.57;4.10;;;;;;;;;;6234297;28;20292;-72
2023/08/19 09:04:03;;;;;;;4.40;4.10;;;;;;;;;;6233671;28;20295;-70
2023/08/19 09:07:11;;;;;;;4.57;4.30;;;;;;;;;;6234990;28;20304;-70
2023/08/19 09:10:17;;;;;;;4.35;4.15;;;;;;;;;;6234666;28;20300;-71
2023/08/19 09:13:22;;;;;;;4.30;4.10;;;;;;;;;;6214356;28;20320;-71
2023/08/19 09:16:26;;;;;;;4.72;4.50;;;;;;;;;;6214627;28;20418;-68
2023/08/19 09:19:30;;;;;;;4.63;4.30;;;;;;;;;;6214330;28;20605;-71
2023/08/19 09:22:37;;;;;;;4.80;4.65;;;;;;;;;;6215280;28;20298;-69
2023/08/19 09:25:41;;;;;;;4.55;4.35;;;;;;;;;;6214349;28;20297;-70
2023/08/19 09:28:45;;;;;;;4.50;4.40;;;;;;;;;;6228741;28;20285;-72
2023/08/19 09:31:53;;;;;;;4.65;4.50;;;;;;;;;;6214510;28;20305;-70
2023/08/19 09:35:04;;;;;;;4.57;4.13;;;;;;;;;;6213974;28;20301;-70
2023/08/19 09:38:20;;;;;;;5.05;4.70;;;;;;;;;;6213779;28;20269;-70
2023/08/19 09:41:27;;;;;;;4.57;4.28;;;;;;;;;;6214045;28;20301;-72
2023/08/19 09:44:31;;;;;;;3.67;3.60;;;;;;;;;;6228478;28;20293;-69
2023/08/19 09:47:48;;;;;;;4.03;3.70;;;;;;;;;;6214493;28;20293;-69
2023/08/19 09:50:52;;;;;;;4.28;4.18;;;;;;;;;;6213974;28;20292;-69
2023/08/19 09:53:57;;;;;;;5.60;3.75;;;;;;;;;;6213733;28;20510;-72
2023/08/19 09:57:01;;;;;;;4.07;3.88;;;;;;;;;;6214068;28;20296;-73
2023/08/19 10:00:06;;;;;;;3.92;3.80;;;;;;;;;;6212789;28;20296;-73
2023/08/19 10:03:11;;;;;;;4.55;4.45;;;;;;;;;;6212150;28;20485;-73
2023/08/19 10:06:17;;;;;;;4.07;3.78;;;;;;;;;;6213639;28;20293;-75
2023/08/19 10:09:25;;;;;;;5.32;4.20;;;;;;;;;;6213773;28;20381;-71
2023/08/19 10:12:31;;;;;;;4.18;4.03;;;;;;;;;;6217820;28;20312;-71
2023/08/19 10:15:36;;;;;;;4.63;4.30;;;;;;;;;;6214261;28;20329;-71
2023/08/19 10:18:41;;;;;;;4.43;4.10;;;;;;;;;;6216500;28;20297;-71
2023/08/19 10:21:46;;;;;;;4.25;4.07;;;;;;;;;;6214849;28;20297;-71
2023/08/19 10:24:53;;;;;;;8.73;4.07;;;;;;;;;;6213056;28;20301;-72
2023/08/19 10:28:07;;;;;;;4.40;4.28;;;;;;;;;;6213526;28;20305;-72
2023/08/19 10:31:12;;;;;;;4.25;4.05;;;;;;;;;;6212897;28;20297;-71
2023/08/19 10:34:25;;;;;;;4.88;4.68;;;;;;;;;;6211396;28;20300;-71
2023/08/19 10:37:30;;;;;;;4.50;4.07;;;;;;;;;;6213610;28;20292;-71
2023/08/19 10:40:35;;;;;;;4.15;3.78;;;;;;;;;;6212938;28;20292;-70
2023/08/19 10:43:52;;;;;;;4.28;4.15;;;;;;;;;;6213687;28;20293;-70
2023/08/19 10:47:08;;;;;;;4.18;4.03;;;;;;;;;;6212701;28;20301;-71
2023/08/19 10:50:12;;;;;;;4.60;4.40;;;;;;;;;;6211649;28;20301;-72
2023/08/19 10:53:21;;;;;;;4.68;4.38;;;;;;;;;;6212651;28;20246;-70
2023/08/19 10:56:26;;;;;;;4.88;4.35;;;;;;;;;;6227420;28;20300;-70
2023/08/19 10:59:32;;;;;;;4.63;4.22;;;;;;;;;;6212134;28;20308;-71
2023/08/19 11:02:36;;;;;;;4.65;4.55;;;;;;;;;;6212486;28;20338;-72
2023/08/19 11:05:48;;;;;;;4.32;4.20;;;;;;;;;;6211891;28;20293;-71
2023/08/19 11:08:52;;;;;;;4.35;4.07;;;;;;;;;;6233647;28;20292;-71
2023/08/19 11:11:58;;;;;;;4.20;3.83;;;;;;;;;;6231814;28;20300;-70
2023/08/19 11:15:01;;;;;;;4.15;4.05;;;;;;;;;;6236068;28;20296;-71
2023/08/19 11:18:06;;;;;;;3.22;3.22;;;;;;;;;;6236341;28;20296;-71
2023/08/19 11:21:09;;;;;;;3.67;3.63;;;;;;;;;;6236316;28;20292;-71
2023/08/19 11:24:14;;;;;;;4.35;4.10;;;;;;;;;;6235723;28;20300;-71
2023/08/19 11:27:19;;;;;;;3.92;3.70;;;;;;;;;;6236236;28;20562;-71
2023/08/19 11:30:25;;;;;;;4.30;4.10;;;;;;;;;;6235795;28;20486;-71
2023/08/19 11:33:32;;;;;;;3.70;3.55;;;;;;;;;;6235360;28;20289;-71
2023/08/19 11:36:35;;;;;;;4.72;3.92;;;;;;;;;;6236169;28;20297;-70
2023/08/19 11:39:40;;;;;;;3.88;3.70;;;;;;;;;;6235511;28;20489;-71
2023/08/19 11:42:45;;;;;;;3.70;3.60;;;;;;;;;;6236245;28;20292;-71
2023/08/19 11:45:49;;;;;;;4.88;4.55;;;;;;;;;;6234113;28;20332;-71
2023/08/19 11:48:53;;;;;;;4.15;4.03;;;;;;;;;;6235723;28;20312;-71
2023/08/19 11:51:58;;;;;;;4.35;4.20;;;;;;;;;;6234912;28;20300;-71
2023/08/19 11:55:03;;;;;;;4.57;4.25;;;;;;;;;;6235136;28;20312;-71
2023/08/19 11:58:08;;;;;;;4.10;4.00;;;;;;;;;;6235258;28;20588;-72
2023/08/19 12:01:12;;;;;;;4.30;4.20;;;;;;;;;;6235687;28;20488;-71
2023/08/19 12:04:16;;;;;;;3.92;3.85;;;;;;;;;;6234855;28;20295;-71
2023/08/19 12:07:26;;;;;;;3.95;3.85;;;;;;;;;;6235663;28;20308;-71
2023/08/19 12:10:40;;;;;;;3.85;3.85;;;;;;;;;;6234922;28;20304;-70
2023/08/19 12:13:50;;;;;;;4.10;4.00;;;;;;;;;;6234708;28;20284;-72
2023/08/19 12:16:54;;;;;;;4.18;3.97;;;;;;;;;;6235255;28;20296;-73
2023/08/19 12:19:58;;;;;;;4.10;3.90;;;;;;;;;;6234216;28;20473;-74
2023/08/19 12:23:01;;;;;;;7.47;4.25;;;;;;;;;;6234426;28;20237;-73
2023/08/19 12:26:05;;;;;;;4.20;4.00;;;;;;;;;;6235262;28;20249;-72
2023/08/19 12:29:10;;;;;;;4.43;4.07;;;;;;;;;;6234736;28;20292;-72
2023/08/19 12:32:14;;;;;;;4.00;3.78;;;;;;;;;;6235176;28;20249;-72
2023/08/19 12:35:18;;;;;;;4.13;3.83;;;;;;;;;;6234935;28;20295;-71
2023/08/19 12:38:22;;;;;;;3.97;3.78;;;;;;;;;;6235104;28;20287;-70
2023/08/19 12:41:26;;;;;;;3.83;3.63;;;;;;;;;;6235200;28;20292;-73
2023/08/19 12:44:31;;;;;;;3.72;3.53;;;;;;;;;;6235478;28;20288;-70
2023/08/19 12:47:35;;;;;;;4.30;4.00;;;;;;;;;;6238997;28;20287;-70
2023/08/19 12:50:39;;;;;;;4.40;4.30;;;;;;;;;;6240050;28;20292;-73
2023/08/19 12:53:43;;;;;;;3.95;3.80;;;;;;;;;;6239406;28;20291;-71
2023/08/19 12:56:47;;;;;;;4.20;4.10;;;;;;;;;;6240132;28;20300;-71
2023/08/19 12:59:52;;;;;;;4.50;4.10;;;;;;;;;;6239396;28;20296;-71
2023/08/19 13:02:57;;;;;;;4.10;3.90;;;;;;;;;;6239239;28;20296;-75
2023/08/19 13:06:01;;;;;;;3.85;3.55;;;;;;;;;;6239825;28;20299;-72
2023/08/19 13:09:05;;;;;;;4.30;4.00;;;;;;;;;;6239449;28;20593;-72
2023/08/19 13:12:09;;;;;;;3.92;3.83;;;;;;;;;;6239745;28;20288;-72
2023/08/19 13:15:16;;;;;;;3.85;3.60;;;;;;;;;;6239026;28;20293;-72
2023/08/19 13:18:20;;;;;;;3.90;3.80;;;;;;;;;;6239350;28;20361;-73
2023/08/19 13:21:24;;;;;;;3.67;3.50;;;;;;;;;;6239482;28;20304;-72
2023/08/19 13:24:27;;;;;;;3.60;3.50;;;;;;;;;;6239133;28;20608;-72
2023/08/19 13:27:31;;;;;;;3.40;3.28;;;;;;;;;;6239369;28;20296;-72
2023/08/19 13:30:36;;;;;;;3.90;3.80;;;;;;;;;;6238663;28;20300;-72
2023/08/19 13:33:40;;;;;;;3.47;3.28;;;;;;;;;;6238813;28;20292;-72
2023/08/19 13:36:44;;;;;;;3.40;3.30;;;;;;;;;;6238905;28;20331;-73
2023/08/19 13:39:47;;;;;;;3.10;3.10;;;;;;;;;;6238778;28;20295;-71
2023/08/19 13:42:51;;;;;;;3.33;3.30;;;;;;;;;;6238306;28;20291;-71
2023/08/19 13:45:56;;;;;;;3.60;3.40;;;;;;;;;;6238913;28;20304;-71
2023/08/19 13:49:00;;;;;;;3.20;3.05;;;;;;;;;;6237901;28;20301;-72
2023/08/19 13:52:04;;;;;;;2.88;2.88;;;;;;;;;;6238989;28;20303;-72
2023/08/19 13:55:09;;;;;;;3.10;3.00;;;;;;;;;;6238461;28;20472;-72
2023/08/19 13:58:13;;;;;;;3.55;3.33;;;;;;;;;;6237669;28;20293;-72
2023/08/19 14:01:18;;;;;;;2.90;2.90;;;;;;;;;;6238561;28;20280;-72
2023/08/19 14:04:22;;;;;;;3.60;3.50;;;;;;;;;;6240310;28;20293;-73
2023/08/19 14:07:26;;;;;;;3.03;3.03;;;;;;;;;;6246945;28;20300;-73
2023/08/19 14:10:30;;;;;;;3.53;3.33;;;;;;;;;;6246959;28;20308;-72
2023/08/19 14:13:33;;;;;;;3.22;3.13;;;;;;;;;;6245234;28;20287;-72
2023/08/19 14:16:38;;;;;;;2.83;2.75;;;;;;;;;;6238050;28;20392;-74
2023/08/19 14:19:42;;;;;;;2.97;2.88;;;;;;;;;;6237377;28;20609;-72
2023/08/19 14:22:46;;;;;;;2.95;2.92;;;;;;;;;;6237950;28;20292;-72
2023/08/19 14:25:50;;;;;;;3.30;3.10;;;;;;;;;;6237272;28;20296;-72
2023/08/19 14:28:54;;;;;;;3.05;3.05;;;;;;;;;;6252962;28;20316;-72
2023/08/19 14:31:59;;;;;;;3.25;3.25;;;;;;;;;;6236843;28;20300;-73
2023/08/19 14:35:07;;;;;;;3.65;3.55;;;;;;;;;;6236845;28;20292;-72
2023/08/19 14:38:11;;;;;;;3.30;3.30;;;;;;;;;;6236762;28;20504;-72
2023/08/19 14:41:15;;;;;;;3.88;3.67;;;;;;;;;;6237138;28;20240;-72
2023/08/19 14:44:18;;;;;;;4.43;3.72;;;;;;;;;;6236524;28;20293;-71
2023/08/19 14:47:24;;;;;;;4.20;3.92;;;;;;;;;;6237169;28;20304;-72
2023/08/19 14:50:28;;;;;;;3.90;3.70;;;;;;;;;;6236610;28;20288;-72
2023/08/19 14:53:32;;;;;;;3.80;3.70;;;;;;;;;;6236304;28;20304;-72
2023/08/19 14:56:35;;;;;;;4.28;4.18;;;;;;;;;;6237135;28;20304;-72
2023/08/19 14:59:39;;;;;;;4.03;3.83;;;;;;;;;;6236471;28;20296;-71
2023/08/19 15:02:46;;;;;;;4.20;4.00;;;;;;;;;;6252263;28;20288;-73
2023/08/19 15:05:50;;;;;;;4.00;3.90;;;;;;;;;;6236356;28;20296;-72
2023/08/19 15:08:53;;;;;;;4.40;4.22;;;;;;;;;;6235510;28;20316;-74
2023/08/19 15:11:57;;;;;;;4.20;3.90;;;;;;;;;;6236777;28;20297;-72
2023/08/19 15:15:01;;;;;;;4.30;4.00;;;;;;;;;;6236083;28;20333;-73
2023/08/19 15:18:06;;;;;;;4.35;4.15;;;;;;;;;;6235856;28;20483;-75
2023/08/19 15:21:10;;;;;;;4.60;4.40;;;;;;;;;;6236484;28;20304;-74
2023/08/19 15:24:14;;;;;;;3.97;3.72;;;;;;;;;;6236119;28;20578;-72
2023/08/19 15:27:18;;;;;;;3.88;3.88;;;;;;;;;;6236477;28;20296;-72
2023/08/19 15:30:21;;;;;;;3.50;3.50;;;;;;;;;;6251197;28;20576;-73
2023/08/19 15:33:29;;;;;;;4.25;4.05;;;;;;;;;;6235838;28;20292;-74
2023/08/19 15:36:33;;;;;;;4.22;3.97;;;;;;;;;;6251915;28;20588;-73
2023/08/19 15:39:37;;;;;;;3.90;3.72;;;;;;;;;;6235718;28;20300;-72
2023/08/19 15:42:41;;;;;;;4.18;3.80;;;;;;;;;;6236340;28;20574;-73
2023/08/19 15:45:44;;;;;;;3.80;3.70;;;;;;;;;;6251133;28;20424;-73
2023/08/19 15:48:50;;;;;;;3.95;3.70;;;;;;;;;;6235601;28;20300;-72
2023/08/19 15:51:53;;;;;;;3.97;3.60;;;;;;;;;;6236169;28;20304;-71
2023/08/19 15:54:57;;;;;;;4.32;4.03;;;;;;;;;;6235212;28;20356;-72
2023/08/19 15:58:01;;;;;;;4.40;4.30;;;;;;;;;;6235265;28;20300;-71
2023/08/19 16:01:05;;;;;;;4.15;4.10;;;;;;;;;;6235706;28;20300;-72
2023/08/19 16:04:10;;;;;;;4.25;3.95;;;;;;;;;;6235113;28;20308;-73
2023/08/19 16:07:16;;;;;;;4.13;4.03;;;;;;;;;;6235935;28;20291;-73
2023/08/19 16:10:19;;;;;;;4.13;4.03;;;;;;;;;;6235694;28;20296;-72
2023/08/19 16:13:23;;;;;;;4.45;4.05;;;;;;;;;;6211658;28;20460;-71
2023/08/19 16:16:27;;;;;;;4.30;4.20;;;;;;;;;;6211272;28;20447;-72
2023/08/19 16:19:32;;;;;;;4.22;4.13;;;;;;;;;;6210608;28;20300;-72
2023/08/19 16:22:36;;;;;;;4.20;3.90;;;;;;;;;;6211234;28;20298;-72
2023/08/19 16:25:42;;;;;;;4.18;4.00;;;;;;;;;;6210521;28;20292;-71
2023/08/19 16:28:46;;;;;;;4.20;4.00;;;;;;;;;;6210526;28;20296;-73
2023/08/19 16:31:50;;;;;;;4.35;4.15;;;;;;;;;;6211021;28;20305;-71
2023/08/19 16:34:55;;;;;;;4.57;4.18;;;;;;;;;;6210296;28;20296;-72
2023/08/19 16:37:59;;;;;;;6.95;4.63;;;;;;;;;;6209448;28;20293;-73
2023/08/19 16:41:05;;;;;;;4.45;4.25;;;;;;;;;;6210350;28;20246;-73
2023/08/19 16:44:09;;;;;;;4.47;4.38;;;;;;;;;;6209854;28;20305;-71
2023/08/19 16:47:13;;;;;;;4.15;3.92;;;;;;;;;;6210733;28;20245;-71
2023/08/19 16:50:18;;;;;;;6.22;5.50;;;;;;;;;;6209783;28;20593;-72
2023/08/19 16:53:22;;;;;;;5.03;4.82;;;;;;;;;;6209218;28;20304;-71
2023/08/19 16:56:26;;;;;;;4.93;4.60;;;;;;;;;;6209840;28;20316;-72
2023/08/19 16:59:30;;;;;;;4.82;4.60;;;;;;;;;;6209901;28;20300;-72
2023/08/19 17:02:34;;;;;;;5.00;4.85;;;;;;;;;;6210234;28;20293;-71
2023/08/19 17:05:40;;;;;;;8.90;8.32;;;;;;;;;;6209562;28;20289;-71
2023/08/19 17:08:44;;;;;;;32.20;23.42;;;;;;;;;;6210054;28;20569;-71
2023/08/19 17:11:48;;;;;;;40.10;28.63;;;;;;;;;;6214644;28;20308;-71
2023/08/19 17:14:51;;;;;;;16.92;14.48;;;;;;;;;;6210329;28;20293;-72
2023/08/19 17:17:55;;;;;;;20.23;14.90;;;;;;;;;;6212831;28;20292;-72
2023/08/19 17:21:02;;;;;;;6.35;5.70;;;;;;;;;;6213310;28;20438;-71
2023/08/19 17:24:07;;;;;;;5.63;4.80;;;;;;;;;;6209803;28;20431;-72
2023/08/19 17:27:11;;;;;;;4.63;4.43;;;;;;;;;;6210561;28;20293;-71
2023/08/19 17:30:15;;;;;;;4.93;4.68;;;;;;;;;;6209976;28;20300;-72
2023/08/19 17:33:19;;;;;;;5.20;4.80;;;;;;;;;;6212742;28;20292;-72
2023/08/19 17:36:24;;;;;;;5.07;4.88;;;;;;;;;;6229866;28;20296;-72
2023/08/19 17:39:28;;;;;;;7.68;5.60;;;;;;;;;;6214291;28;20297;-72
2023/08/19 17:42:32;;;;;;;5.10;4.63;;;;;;;;;;6215175;28;20300;-72
2023/08/19 17:45:35;;;;;;;4.93;4.82;;;;;;;;;;6214188;28;20289;-72
2023/08/19 17:48:39;;;;;;;4.65;4.38;;;;;;;;;;6213667;28;20384;-69
2023/08/19 17:51:48;;;;;;;4.30;4.03;;;;;;;;;;6214051;28;20300;-69
2023/08/19 17:54:52;;;;;;;5.78;4.80;;;;;;;;;;6213297;28;20577;-68
2023/08/19 17:57:56;;;;;;;4.57;4.43;;;;;;;;;;6213358;28;20594;-68
2023/08/19 18:01:00;;;;;;;11.38;4.78;;;;;;;;;;6213977;28;20577;-69
2023/08/19 18:04:05;;;;;;;4.68;4.57;;;;;;;;;;6213362;28;20328;-71
2023/08/19 18:07:10;;;;;;;5.07;4.78;;;;;;;;;;6213776;28;20297;-69
2023/08/19 18:10:14;;;;;;;4.75;4.65;;;;;;;;;;6213148;28;20293;-69
2023/08/19 18:13:18;;;;;;;4.95;4.75;;;;;;;;;;6236639;28;20412;-70
2023/08/19 18:16:21;;;;;;;5.43;5.15;;;;;;;;;;6237703;28;20300;-71
2023/08/19 18:19:32;;;;;;;4.95;4.65;;;;;;;;;;6237195;28;20300;-69
2023/08/19 18:22:37;;;;;;;4.68;4.30;;;;;;;;;;6237974;28;20289;-71
2023/08/19 18:25:41;;;;;;;4.45;4.15;;;;;;;;;;6251951;28;20497;-69
2023/08/19 18:28:45;;;;;;;4.32;4.10;;;;;;;;;;6237225;28;20291;-71